Terminal Aerodrome Forecast
Issued by NWS Omaha/Valley, NE

Home | Current Version | Previous Version | Graphics & Text | Print | Product List | Glossary On
Versions: 1 2 3 4 5 6 7 8 9 10 11 12 13 14 15 16 17 18
000
FTUS43 KOAX 092320
TAFOFK
TAF
KOFK 092320Z 1000/1024 13008KT P6SM OVC050
     FM100600 12005KT P6SM SCT025 BKN070
     FM101100 11004KT P6SM OVC025 PROB30 1011/1014 4SM -SN
     FM101400 12007KT 2SM -SN BR OVC015=

USA.gov is the U.S. government's official web portal to all federal, state and local government web resources and services.